Time;durP1;ratioP1;P1;durP2;ratioP2;P2;SDS_P1;SDS_P2;PMS_P1;PMS_P2;Temp;Humidity;BMP_temperature;BMP_pressure;BME280_temperature;BME280_humidity;BME280_pressure;Samples;Min_cycle;Max_cycle;Signal;HPM_P1;HPM_P2
2022/08/16 00:01:24;;;;;;;;;;;;;;;35.26;26.01;99682.63;4435173;32;19945;-69
2022/08/16 00:03:50;;;;;;;;;;;;;;;35.70;25.43;99675.81;4435066;32;20016;-69
2022/08/16 00:06:15;;;;;;;;;;;;;;;35.87;25.18;99679.09;4435836;32;19953;-69
2022/08/16 00:08:41;;;;;;;;;;;;;;;35.89;25.10;99681.41;4433959;32;19968;-69
2022/08/16 00:11:08;;;;;;;;;;;;;;;35.99;24.91;99682.72;4424053;32;19949;-69
2022/08/16 00:13:34;;;;;;;;;;;;;;;36.03;24.60;99688.84;4433665;32;20001;-69
2022/08/16 00:15:59;;;;;;;;;;;;;;;36.03;24.57;99694.69;4434893;32;20237;-69
2022/08/16 00:18:25;;;;;;;;;;;;;;;35.77;24.95;99687.25;4433689;32;19992;-69
2022/08/16 00:20:50;;;;;;;;;;;;;;;35.90;25.01;99689.53;4431466;32;20016;-69
2022/08/16 00:23:16;;;;;;;;;;;;;;;35.89;25.09;99685.06;4437189;32;19953;-69
2022/08/16 00:25:41;;;;;;;;;;;;;;;35.87;25.19;99684.97;4436540;32;20626;-69
2022/08/16 00:28:07;;;;;;;;;;;;;;;36.08;24.99;99684.72;4425824;32;19949;-69
2022/08/16 00:30:32;;;;;;;;;;;;;;;36.15;24.97;99685.84;4421589;32;19965;-69
2022/08/16 00:32:59;;;;;;;;;;;;;;;35.87;25.25;99690.06;4426107;32;19986;-69
2022/08/16 00:35:27;;;;;;;;;;;;;;;35.85;25.21;99689.91;4422294;32;20000;-69
2022/08/16 00:37:55;;;;;;;;;;;;;;;35.77;25.31;99695.28;4425091;32;20312;-69
2022/08/16 00:40:24;;;;;;;;;;;;;;;35.88;25.23;99695.25;4426386;32;20012;-69
2022/08/16 00:42:50;;;;;;;;;;;;;;;35.75;25.42;99698.84;4427574;32;19960;-69
2022/08/16 00:45:26;;;;;;;;;;;;;;;36.01;25.14;99709.22;4423925;32;20009;-69
2022/08/16 00:47:52;;;;;;;;;;;;;;;35.74;25.39;99702.41;4422740;32;20001;-69
2022/08/16 00:50:20;;;;;;;;;;;;;;;36.03;25.10;99705.66;4423505;32;20332;-69
2022/08/16 00:52:45;;;;;;;;;;;;;;;35.86;25.25;99709.03;4422189;32;19953;-69
2022/08/16 00:55:11;;;;;;;;;;;;;;;36.01;25.23;99706.28;4422172;32;20422;-69
2022/08/16 00:57:37;;;;;;;;;;;;;;;36.00;25.22;99701.84;4425662;32;20007;-69
2022/08/16 01:00:05;;;;;;;;;;;;;;;36.04;25.14;99699.16;4422702;32;20008;-69
2022/08/16 01:02:30;;;;;;;;;;;;;;;36.04;25.19;99704.22;4423300;32;20760;-69
2022/08/16 01:04:56;;;;;;;;;;;;;;;35.75;25.52;99695.16;4424344;32;19990;-69
2022/08/16 01:07:22;;;;;;;;;;;;;;;35.99;25.19;99705.41;4424613;32;20381;-69
2022/08/16 01:09:47;;;;;;;;;;;;;;;35.86;25.35;99698.06;4424936;32;19957;-69
2022/08/16 01:12:15;;;;;;;;;;;;;;;35.93;25.36;99705.81;4426182;32;20474;-69
2022/08/16 01:14:44;;;;;;;;;;;;;;;35.81;25.62;99696.31;4422700;32;20028;-69
2022/08/16 01:17:11;;;;;;;;;;;;;;;35.87;25.52;99701.75;4423535;32;20327;-69
2022/08/16 01:19:40;;;;;;;;;;;;;;;35.90;25.52;99701.25;4424367;32;20061;-69
2022/08/16 01:22:25;;;;;;;;;;;;;;;35.75;25.66;99701.00;4425743;32;19949;-69
2022/08/16 01:24:54;;;;;;;;;;;;;;;35.68;25.68;99702.03;4425889;32;19993;-69
2022/08/16 01:27:24;;;;;;;;;;;;;;;35.68;25.80;99699.13;4425218;32;20016;-69
2022/08/16 01:29:56;;;;;;;;;;;;;;;35.75;25.67;99686.38;4423031;32;19998;-69
2022/08/16 01:32:21;;;;;;;;;;;;;;;35.77;25.64;99689.41;4422921;32;20448;-69
2022/08/16 01:34:47;;;;;;;;;;;;;;;35.60;25.76;99693.53;4424739;32;20013;-69
2022/08/16 01:37:13;;;;;;;;;;;;;;;35.65;25.76;99695.28;4424598;32;19961;-69
2022/08/16 01:39:39;;;;;;;;;;;;;;;35.72;25.53;99703.06;4424021;32;19988;-69
2022/08/16 01:42:07;;;;;;;;;;;;;;;35.31;25.98;99704.13;4424870;32;19953;-69
2022/08/16 01:44:34;;;;;;;;;;;;;;;35.45;25.87;99714.56;4426025;32;19957;-69
2022/08/16 01:46:59;;;;;;;;;;;;;;;35.03;26.37;99714.03;4422879;32;20286;-69
2022/08/16 01:49:27;;;;;;;;;;;;;;;35.22;26.22;99716.72;4422870;32;19949;-69
2022/08/16 01:51:56;;;;;;;;;;;;;;;35.14;26.42;99719.87;4425356;32;20373;-69
2022/08/16 01:54:22;;;;;;;;;;;;;;;34.93;26.78;99720.00;4420529;32;20000;-69
2022/08/16 01:56:47;;;;;;;;;;;;;;;35.05;26.68;99717.84;4422667;32;20035;-69
2022/08/16 01:59:13;;;;;;;;;;;;;;;34.94;26.75;99717.84;4423200;32;19953;-69
2022/08/16 02:01:39;;;;;;;;;;;;;;;34.98;26.81;99713.03;4424105;32;20027;-69
2022/08/16 02:04:06;;;;;;;;;;;;;;;34.85;26.97;99721.63;4423717;32;20921;-69
2022/08/16 02:06:31;;;;;;;;;;;;;;;34.81;27.02;99712.59;4423897;32;20007;-69
2022/08/16 02:08:57;;;;;;;;;;;;;;;34.75;26.99;99718.78;4423557;32;20013;-69
2022/08/16 02:11:23;;;;;;;;;;;;;;;34.50;27.52;99706.16;4424151;32;19969;-69
2022/08/16 02:13:49;;;;;;;;;;;;;;;34.59;27.36;99705.28;4422779;32;20005;-69
2022/08/16 02:16:14;;;;;;;;;;;;;;;34.60;27.30;99698.81;4417946;32;20387;-69
2022/08/16 02:18:40;;;;;;;;;;;;;;;34.52;27.37;99707.06;4423292;32;20000;-69
2022/08/16 02:21:07;;;;;;;;;;;;;;;34.66;27.18;99707.97;4421419;32;20449;-69
2022/08/16 02:23:35;;;;;;;;;;;;;;;34.56;27.29;99707.31;4425060;32;20250;-69
2022/08/16 02:26:00;;;;;;;;;;;;;;;34.35;27.56;99713.97;4424406;32;19953;-68
2022/08/16 02:28:26;;;;;;;;;;;;;;;34.13;28.07;99705.88;4424564;32;19949;-68
2022/08/16 02:30:52;;;;;;;;;;;;;;;34.03;28.01;99705.22;4424165;32;20132;-69
2022/08/16 02:33:20;;;;;;;;;;;;;;;33.80;28.54;99702.91;4425699;32;19977;-69
2022/08/16 02:35:46;;;;;;;;;;;;;;;33.81;27.99;99709.53;4423206;32;21001;-69
2022/08/16 02:38:11;;;;;;;;;;;;;;;33.25;28.65;99708.50;4423046;32;19968;-69
2022/08/16 02:40:38;;;;;;;;;;;;;;;33.46;28.38;99694.72;4423297;32;19949;-69
2022/08/16 02:43:03;;;;;;;;;;;;;;;33.56;28.41;99695.41;4422805;32;20000;-69
2022/08/16 02:45:30;;;;;;;;;;;;;;;33.69;28.20;99694.09;4423923;32;19972;-69
2022/08/16 02:47:56;;;;;;;;;;;;;;;33.71;28.14;99700.81;4421616;32;19947;-69
2022/08/16 02:50:21;;;;;;;;;;;;;;;33.68;28.25;99699.16;4422920;32;19949;-69
2022/08/16 02:52:47;;;;;;;;;;;;;;;33.81;28.09;99703.69;4424668;32;20307;-69
2022/08/16 02:55:13;;;;;;;;;;;;;;;33.81;28.13;99701.50;4425284;32;20295;-69
2022/08/16 02:57:38;;;;;;;;;;;;;;;33.83;28.20;99701.66;4422059;32;20952;-69
2022/08/16 03:00:08;;;;;;;;;;;;;;;33.81;28.39;99706.59;4422037;32;20007;-69
2022/08/16 03:02:34;;;;;;;;;;;;;;;33.91;28.15;99707.31;4422352;32;20005;-69
2022/08/16 03:04:59;;;;;;;;;;;;;;;33.94;28.11;99706.84;4423706;32;19976;-69
2022/08/16 03:07:25;;;;;;;;;;;;;;;33.78;28.45;99716.59;4423380;32;20342;-69
2022/08/16 03:09:50;;;;;;;;;;;;;;;33.74;28.43;99710.47;4422998;32;19989;-69
2022/08/16 03:12:18;;;;;;;;;;;;;;;33.71;28.48;99712.50;4424997;32;20030;-69
2022/08/16 03:14:44;;;;;;;;;;;;;;;33.63;28.39;99703.22;4421551;32;19991;-69
2022/08/16 03:17:09;;;;;;;;;;;;;;;33.65;28.57;99702.59;4421608;32;20202;-68
2022/08/16 03:19:36;;;;;;;;;;;;;;;33.42;28.83;99703.19;4422827;32;19976;-69
2022/08/16 03:22:01;;;;;;;;;;;;;;;33.38;28.72;99708.72;4422520;32;20016;-69
2022/08/16 03:24:27;;;;;;;;;;;;;;;33.53;28.33;99714.16;4423551;32;19949;-69
2022/08/16 03:26:53;;;;;;;;;;;;;;;33.38;28.68;99719.66;4421205;32;19997;-69
2022/08/16 03:29:19;;;;;;;;;;;;;;;33.43;28.58;99715.59;4422916;32;20041;-69
2022/08/16 03:31:44;;;;;;;;;;;;;;;33.30;28.71;99713.19;4421029;32;19969;-69
2022/08/16 03:34:10;;;;;;;;;;;;;;;33.37;28.88;99703.53;4422181;32;20357;-69
2022/08/16 03:36:35;;;;;;;;;;;;;;;33.38;28.97;99702.88;4423321;32;20379;-69
2022/08/16 03:39:01;;;;;;;;;;;;;;;33.44;28.81;99714.97;4421892;32;20013;-69
2022/08/16 03:41:27;;;;;;;;;;;;;;;33.21;29.02;99719.84;4422985;32;19993;-68
2022/08/16 03:43:54;;;;;;;;;;;;;;;33.22;29.11;99716.31;4422331;32;19967;-69
2022/08/16 03:46:21;;;;;;;;;;;;;;;33.26;28.98;99713.69;4422565;32;19976;-69
2022/08/16 03:48:46;;;;;;;;;;;;;;;33.25;29.08;99714.31;4422506;32;19973;-69
2022/08/16 03:51:12;;;;;;;;;;;;;;;33.24;29.12;99707.72;4422441;32;19965;-69
2022/08/16 03:53:38;;;;;;;;;;;;;;;32.97;29.59;99710.16;4423831;32;20359;-68
2022/08/16 03:56:06;;;;;;;;;;;;;;;33.04;29.54;99717.19;4421901;32;19958;-68
2022/08/16 03:58:32;;;;;;;;;;;;;;;33.12;29.43;99714.81;4421403;32;20000;-68
2022/08/16 04:00:57;;;;;;;;;;;;;;;32.93;29.62;99714.91;4420653;32;20353;-68
2022/08/16 04:03:23;;;;;;;;;;;;;;;33.03;29.44;99719.31;4425670;32;20365;-68
2022/08/16 04:05:50;;;;;;;;;;;;;;;33.12;29.35;99729.41;4425031;32;20058;-68
2022/08/16 04:08:18;;;;;;;;;;;;;;;32.93;29.73;99726.56;4425871;32;19965;-69
2022/08/16 04:10:43;;;;;;;;;;;;;;;32.82;29.80;99727.22;4425991;32;20032;-69
2022/08/16 04:13:09;;;;;;;;;;;;;;;32.78;29.95;99729.81;4424295;32;19983;-68
2022/08/16 04:15:34;;;;;;;;;;;;;;;32.96;29.79;99731.16;4424395;32;20037;-69
2022/08/16 04:18:00;;;;;;;;;;;;;;;32.91;29.99;99730.12;4424347;32;19957;-69
2022/08/16 04:20:26;;;;;;;;;;;;;;;32.95;30.02;99741.31;4424300;32;20294;-69
2022/08/16 04:22:52;;;;;;;;;;;;;;;32.98;29.94;99740.06;4423783;32;19961;-69
2022/08/16 04:25:18;;;;;;;;;;;;;;;33.02;29.88;99737.44;4425685;32;20018;-69
2022/08/16 04:27:43;;;;;;;;;;;;;;;32.79;29.94;99737.94;4425942;32;19950;-69
2022/08/16 04:30:10;;;;;;;;;;;;;;;33.01;29.88;99735.91;4423346;32;20389;-69
2022/08/16 04:32:36;;;;;;;;;;;;;;;32.89;30.12;99743.78;4426249;32;20383;-69
2022/08/16 04:35:03;;;;;;;;;;;;;;;32.88;30.11;99751.00;4425267;32;19961;-69
2022/08/16 04:37:28;;;;;;;;;;;;;;;33.07;29.87;99748.75;4425121;32;19992;-69
2022/08/16 04:39:54;;;;;;;;;;;;;;;33.14;29.79;99758.72;4426002;32;20004;-68
2022/08/16 04:42:19;;;;;;;;;;;;;;;32.88;30.06;99760.50;4424483;32;20017;-69
2022/08/16 04:44:45;;;;;;;;;;;;;;;32.99;30.03;99765.69;4425083;32;19965;-69
2022/08/16 04:47:11;;;;;;;;;;;;;;;32.94;29.87;99769.69;4425025;32;20020;-69
2022/08/16 04:49:36;;;;;;;;;;;;;;;33.00;29.84;99766.47;4423324;32;20376;-69
2022/08/16 04:52:02;;;;;;;;;;;;;;;33.00;29.80;99763.53;4426215;32;19972;-69
2022/08/16 04:54:28;;;;;;;;;;;;;;;33.06;29.94;99773.47;4425568;32;19993;-69
2022/08/16 04:56:53;;;;;;;;;;;;;;;33.27;29.55;99775.69;4426690;32;20312;-69
2022/08/16 04:59:18;;;;;;;;;;;;;;;33.14;29.68;99774.06;4424292;32;20032;-69
2022/08/16 05:01:44;;;;;;;;;;;;;;;33.08;29.75;99773.63;4423174;32;19958;-69
2022/08/16 05:04:09;;;;;;;;;;;;;;;33.14;29.60;99776.22;4425136;32;19961;-69
2022/08/16 05:06:35;;;;;;;;;;;;;;;33.11;29.71;99771.63;4422899;32;20123;-69
2022/08/16 05:09:00;;;;;;;;;;;;;;;33.19;29.57;99772.22;4422776;32;20848;-69
2022/08/16 05:11:27;;;;;;;;;;;;;;;33.12;29.58;99778.97;4426644;32;20592;-69
2022/08/16 05:13:53;;;;;;;;;;;;;;;33.23;29.48;99775.41;4424327;32;19986;-68
2022/08/16 05:16:22;;;;;;;;;;;;;;;33.25;29.34;99787.22;4421670;32;20440;-69
2022/08/16 05:18:48;;;;;;;;;;;;;;;33.30;29.11;99795.63;4423057;32;20361;-68
2022/08/16 05:21:13;;;;;;;;;;;;;;;33.27;29.31;99793.19;4422792;32;19961;-68
2022/08/16 05:23:39;;;;;;;;;;;;;;;33.41;28.90;99783.31;4423783;32;20708;-69
2022/08/16 05:26:05;;;;;;;;;;;;;;;33.50;29.04;99790.50;4425748;32;19976;-69
2022/08/16 05:28:31;;;;;;;;;;;;;;;33.53;29.08;99798.03;4424344;32;19989;-69
2022/08/16 05:30:56;;;;;;;;;;;;;;;33.53;28.81;99798.75;4424916;32;19956;-68
2022/08/16 05:33:22;;;;;;;;;;;;;;;33.60;28.73;99797.06;4424386;32;19957;-69
2022/08/16 05:35:48;;;;;;;;;;;;;;;33.93;28.52;99800.88;4425223;32;19953;-69
2022/08/16 05:38:14;;;;;;;;;;;;;;;33.87;28.53;99789.53;4425532;32;20257;-69
2022/08/16 05:40:40;;;;;;;;;;;;;;;33.77;28.36;99794.63;4423884;32;19994;-69
2022/08/16 05:43:06;;;;;;;;;;;;;;;33.91;28.32;99794.87;4424670;32;20298;-69
2022/08/16 05:45:32;;;;;;;;;;;;;;;33.94;28.02;99793.63;4424911;32;19957;-69
2022/08/16 05:47:57;;;;;;;;;;;;;;;33.77;28.24;99802.63;4422927;32;20343;-68
2022/08/16 05:50:23;;;;;;;;;;;;;;;33.94;28.13;99793.63;4420731;32;19945;-69
2022/08/16 05:52:48;;;;;;;;;;;;;;;33.89;27.92;99794.75;4425774;32;20002;-69
2022/08/16 05:55:14;;;;;;;;;;;;;;;33.79;27.79;99785.25;4423638;32;19962;-69
2022/08/16 05:57:39;;;;;;;;;;;;;;;33.76;28.25;99795.25;4425952;32;20996;-68
2022/08/16 06:00:09;;;;;;;;;;;;;;;33.84;28.22;99798.75;4420232;32;20435;-69
2022/08/16 06:02:35;;;;;;;;;;;;;;;33.97;27.92;99793.16;4424420;32;19965;-69
2022/08/16 06:05:01;;;;;;;;;;;;;;;33.89;28.04;99791.81;4424233;32;19976;-69
2022/08/16 06:07:27;;;;;;;;;;;;;;;33.73;28.12;99797.28;4424720;32;20598;-69
2022/08/16 06:09:57;;;;;;;;;;;;;;;33.77;28.27;99806.31;4423063;32;20004;-68
2022/08/16 06:12:22;;;;;;;;;;;;;;;33.71;28.32;99800.06;4425064;32;19957;-69
2022/08/16 06:14:48;;;;;;;;;;;;;;;33.31;28.85;99796.41;4419325;32;19960;-69
2022/08/16 06:17:15;;;;;;;;;;;;;;;33.47;28.75;99800.50;4421459;32;19953;-69
2022/08/16 06:19:41;;;;;;;;;;;;;;;33.86;28.23;99804.72;4421224;32;19998;-69
2022/08/16 06:22:08;;;;;;;;;;;;;;;33.86;28.27;99813.47;4423861;32;20350;-69
2022/08/16 06:24:34;;;;;;;;;;;;;;;33.90;28.25;99811.63;4420823;32;19994;-69
2022/08/16 06:26:59;;;;;;;;;;;;;;;33.94;28.11;99817.78;4424413;32;19941;-69
2022/08/16 06:29:25;;;;;;;;;;;;;;;33.95;28.19;99821.44;4420454;32;20012;-68
2022/08/16 06:31:50;;;;;;;;;;;;;;;33.80;28.11;99816.75;4420459;32;20341;-68
2022/08/16 06:34:16;;;;;;;;;;;;;;;33.86;28.27;99819.31;4421140;32;20354;-68
2022/08/16 06:36:41;;;;;;;;;;;;;;;33.89;28.06;99823.94;4422193;32;20307;-68
2022/08/16 06:39:07;;;;;;;;;;;;;;;34.03;28.08;99824.94;4421873;32;20089;-68
2022/08/16 06:41:32;;;;;;;;;;;;;;;33.95;28.01;99824.34;4424853;32;20020;-68
2022/08/16 06:43:58;;;;;;;;;;;;;;;33.96;28.18;99825.91;4423964;32;19961;-68
2022/08/16 06:46:26;;;;;;;;;;;;;;;34.22;27.87;99816.78;4422065;32;20467;-68
2022/08/16 06:48:52;;;;;;;;;;;;;;;34.34;27.44;99819.75;4419371;32;19988;-69
2022/08/16 06:51:18;;;;;;;;;;;;;;;34.36;27.49;99828.72;4419863;32;19984;-69
2022/08/16 06:53:43;;;;;;;;;;;;;;;33.96;28.04;99823.72;4422702;32;20286;-69
2022/08/16 06:56:09;;;;;;;;;;;;;;;34.00;27.97;99823.25;4424176;32;20232;-69
2022/08/16 06:58:35;;;;;;;;;;;;;;;33.30;28.81;99812.38;4422561;32;20491;-68
2022/08/16 07:01:02;;;;;;;;;;;;;;;34.02;28.10;99808.81;4421261;32;19993;-69
2022/08/16 07:03:28;;;;;;;;;;;;;;;33.72;28.50;99819.09;4422344;32;20361;-69
2022/08/16 07:05:55;;;;;;;;;;;;;;;33.85;28.20;99823.63;4423407;32;20343;-69
2022/08/16 07:08:22;;;;;;;;;;;;;;;33.84;27.90;99822.84;4423647;32;19980;-69
2022/08/16 07:10:49;;;;;;;;;;;;;;;34.09;28.03;99811.53;4422067;32;20345;-69
2022/08/16 07:13:15;;;;;;;;;;;;;;;33.81;28.24;99811.69;4423255;32;19990;-69
2022/08/16 07:15:41;;;;;;;;;;;;;;;34.20;27.73;99816.66;4421269;32;20018;-68
2022/08/16 07:18:09;;;;;;;;;;;;;;;34.78;27.11;99816.19;4420445;32;19966;-68
2022/08/16 07:20:36;;;;;;;;;;;;;;;34.84;26.68;99819.47;4422302;32;20351;-68
2022/08/16 07:23:03;;;;;;;;;;;;;;;35.18;26.42;99837.12;4421310;32;19988;-68
2022/08/16 07:25:29;;;;;;;;;;;;;;;35.38;25.88;99831.84;4421748;32;19976;-68
2022/08/16 07:27:55;;;;;;;;;;;;;;;35.09;26.42;99829.22;4422880;32;20323;-68
2022/08/16 07:30:20;;;;;;;;;;;;;;;35.50;25.93;99830.47;4404766;32;20430;-68
2022/08/16 07:32:48;;;;;;;;;;;;;;;35.40;26.00;99826.13;4422692;32;20009;-68
2022/08/16 07:35:14;;;;;;;;;;;;;;;35.31;26.36;99839.44;4420784;32;21030;-68
2022/08/16 07:37:40;;;;;;;;;;;;;;;35.19;26.14;99838.69;4424710;32;20037;-68
2022/08/16 07:40:05;;;;;;;;;;;;;;;35.65;25.61;99835.06;4425179;32;19953;-68
2022/08/16 07:42:31;;;;;;;;;;;;;;;35.91;25.49;99839.63;4426512;32;20098;-68
2022/08/16 07:44:56;;;;;;;;;;;;;;;35.86;25.59;99838.63;4425705;32;19961;-68
2022/08/16 07:47:22;;;;;;;;;;;;;;;36.05;25.40;99841.25;4425771;32;20267;-68
2022/08/16 07:49:47;;;;;;;;;;;;;;;36.05;25.25;99840.50;4421812;32;19949;-68
2022/08/16 07:52:13;;;;;;;;;;;;;;;35.82;25.69;99850.09;4425545;32;20384;-68
2022/08/16 07:54:38;;;;;;;;;;;;;;;36.03;25.52;99861.66;4423382;32;19957;-68
2022/08/16 07:57:04;;;;;;;;;;;;;;;35.93;25.46;99861.03;4423408;32;19957;-68
2022/08/16 07:59:30;;;;;;;;;;;;;;;36.44;24.81;99870.00;4423556;32;20349;-68
2022/08/16 08:01:56;;;;;;;;;;;;;;;36.48;24.60;99861.44;4414135;32;19953;-68
2022/08/16 08:04:21;;;;;;;;;;;;;;;36.79;24.54;99864.78;4420945;32;20001;-68
2022/08/16 08:06:47;;;;;;;;;;;;;;;36.98;24.02;99867.38;4422691;32;19953;-68
2022/08/16 08:09:13;;;;;;;;;;;;;;;36.94;23.82;99884.75;4423731;32;19973;-68
2022/08/16 08:11:38;;;;;;;;;;;;;;;36.63;23.87;99881.41;4423649;32;19989;-68
2022/08/16 08:14:04;;;;;;;;;;;;;;;36.14;24.62;99883.56;4421890;32;20269;-68
2022/08/16 08:16:30;;;;;;;;;;;;;;;36.43;24.26;99877.25;4423921;32;19979;-68
2022/08/16 08:18:55;;;;;;;;;;;;;;;36.50;23.97;99876.22;4421016;32;20008;-68
2022/08/16 08:21:23;;;;;;;;;;;;;;;36.72;23.60;99884.16;4424085;32;20019;-69
2022/08/16 08:23:49;;;;;;;;;;;;;;;37.18;23.02;99886.91;4421647;32;20331;-68
2022/08/16 08:26:15;;;;;;;;;;;;;;;36.50;23.46;99888.69;4426438;32;19979;-67
2022/08/16 08:28:40;;;;;;;;;;;;;;;36.91;22.93;99889.75;4424179;32;20342;-67
2022/08/16 08:31:06;;;;;;;;;;;;;;;36.67;23.31;99894.13;4423204;32;19945;-67
2022/08/16 08:33:33;;;;;;;;;;;;;;;36.56;23.51;99894.19;4424232;32;19981;-67
2022/08/16 08:35:59;;;;;;;;;;;;;;;36.87;23.04;99907.09;4425836;32;19957;-70
2022/08/16 08:38:26;;;;;;;;;;;;;;;36.26;23.82;99889.38;4414290;32;20018;-67
2022/08/16 08:40:52;;;;;;;;;;;;;;;37.18;22.80;99903.75;4426312;32;19984;-65
2022/08/16 08:43:18;;;;;;;;;;;;;;;38.17;21.69;99898.34;4426139;32;20295;-65
2022/08/16 08:45:44;;;;;;;;;;;;;;;38.42;21.42;99896.03;4424702;32;20814;-66
2022/08/16 08:48:10;;;;;;;;;;;;;;;38.86;21.03;99906.44;4423845;32;19968;-65
2022/08/16 08:50:36;;;;;;;;;;;;;;;38.87;20.94;99917.53;4424174;32;20030;-68
2022/08/16 08:53:02;;;;;;;;;;;;;;;39.25;20.77;99916.56;4424693;32;20433;-66
2022/08/16 08:55:27;;;;;;;;;;;;;;;38.57;21.67;99918.16;4425072;32;19981;-65
2022/08/16 08:57:53;;;;;;;;;;;;;;;38.89;21.24;99922.75;4426543;32;20047;-66
2022/08/16 09:00:21;;;;;;;;;;;;;;;38.64;21.38;99920.75;4422005;32;20122;-65
2022/08/16 09:02:48;;;;;;;;;;;;;;;39.15;20.92;99930.00;4425254;32;20454;-66
2022/08/16 09:05:15;;;;;;;;;;;;;;;38.83;21.11;99923.22;4426465;32;19961;-65
2022/08/16 09:07:41;;;;;;;;;;;;;;;39.42;20.53;99929.91;4423564;32;20025;-65
2022/08/16 09:10:07;;;;;;;;;;;;;;;39.50;20.26;99931.06;4425719;32;19997;-66
2022/08/16 09:12:34;;;;;;;;;;;;;;;40.02;19.93;99926.16;4425890;32;19997;-66
2022/08/16 09:14:59;;;;;;;;;;;;;;;40.55;19.43;99936.00;4423550;32;20450;-68
2022/08/16 09:17:25;;;;;;;;;;;;;;;40.36;19.51;99928.53;4423425;32;20067;-67
2022/08/16 09:19:54;;;;;;;;;;;;;;;40.75;19.06;99922.16;4424085;32;20419;-66
2022/08/16 09:22:20;;;;;;;;;;;;;;;41.21;18.61;99927.88;4425091;32;20030;-66
2022/08/16 09:24:45;;;;;;;;;;;;;;;40.76;18.91;99926.63;4423995;32;19946;-67
2022/08/16 09:27:11;;;;;;;;;;;;;;;41.08;18.50;99939.84;4424359;32;20000;-66
2022/08/16 09:29:37;;;;;;;;;;;;;;;41.41;18.11;99934.59;4424432;32;20561;-66
2022/08/16 09:32:03;;;;;;;;;;;;;;;42.02;17.20;99934.09;4425298;32;19992;-64
2022/08/16 09:34:29;;;;;;;;;;;;;;;41.95;17.18;99947.13;4424913;32;20446;-67
2022/08/16 09:36:56;;;;;;;;;;;;;;;42.60;16.73;99945.16;4423668;32;19967;-66
2022/08/16 09:39:24;;;;;;;;;;;;;;;41.66;17.46;99945.22;4422630;32;19961;-66
2022/08/16 09:41:50;;;;;;;;;;;;;;;41.99;17.24;99948.03;4424503;32;19968;-66
2022/08/16 09:44:19;;;;;;;;;;;;;;;40.92;18.24;99945.03;4425072;32;19949;-68
2022/08/16 09:46:45;;;;;;;;;;;;;;;41.28;18.08;99946.59;4424270;32;19953;-69
2022/08/16 09:49:11;;;;;;;;;;;;;;;40.83;18.54;99943.91;4423340;32;20024;-67
2022/08/16 09:51:37;;;;;;;;;;;;;;;40.83;18.58;99952.75;4423248;32;19993;-67
2022/08/16 09:54:03;;;;;;;;;;;;;;;42.12;17.35;99949.25;4426700;32;20006;-67
2022/08/16 09:56:31;;;;;;;;;;;;;;;42.33;17.30;99943.44;4413360;32;19983;-67
2022/08/16 09:58:59;;;;;;;;;;;;;;;42.60;17.01;99954.03;4425660;32;19957;-69
2022/08/16 10:01:24;;;;;;;;;;;;;;;42.69;16.95;99947.75;4423528;32;19961;-66
2022/08/16 10:03:51;;;;;;;;;;;;;;;42.63;16.86;99950.47;4423732;32;20044;-65
2022/08/16 10:06:17;;;;;;;;;;;;;;;43.01;16.75;99948.13;4425232;32;19953;-66
2022/08/16 10:08:44;;;;;;;;;;;;;;;42.71;17.00;99941.16;4424663;32;20398;-67
2022/08/16 10:13:55;;;;;;;;;;;;;;;41.53;18.04;99939.50;4425740;32;20032;-66
2022/08/16 10:16:20;;;;;;;;;;;;;;;40.38;19.03;99934.53;4424934;32;20072;-67
2022/08/16 10:18:46;;;;;;;;;;;;;;;40.53;18.75;99941.81;4423040;32;20525;-68
2022/08/16 10:21:14;;;;;;;;;;;;;;;41.23;18.21;99942.69;4424364;32;20073;-68
2022/08/16 10:23:40;;;;;;;;;;;;;;;41.11;18.25;99936.28;4424325;32;19969;-68
2022/08/16 10:26:05;;;;;;;;;;;;;;;41.35;17.94;99946.16;4425357;32;19992;-69
2022/08/16 10:28:31;;;;;;;;;;;;;;;41.97;17.53;99956.84;4421576;32;20513;-70
2022/08/16 10:30:58;;;;;;;;;;;;;;;41.51;17.90;99939.44;4411564;32;20011;-66
2022/08/16 10:33:23;;;;;;;;;;;;;;;41.77;17.81;99946.41;4425855;32;20232;-68
2022/08/16 10:35:49;;;;;;;;;;;;;;;41.53;18.16;99939.50;4423402;32;20390;-70
2022/08/16 10:38:15;;;;;;;;;;;;;;;42.15;17.59;99945.72;4424203;32;20322;-70
2022/08/16 10:40:42;;;;;;;;;;;;;;;41.72;17.93;99932.87;4424542;32;20075;-69
2022/08/16 10:43:08;;;;;;;;;;;;;;;41.88;17.97;99943.16;4424375;32;19953;-66
2022/08/16 10:45:33;;;;;;;;;;;;;;;41.41;18.13;99939.75;4422743;32;19993;-68
2022/08/16 10:47:59;;;;;;;;;;;;;;;41.51;18.20;99936.47;4423721;32;20068;-67
2022/08/16 10:50:25;;;;;;;;;;;;;;;40.68;18.45;99947.69;4424067;32;20372;-66
2022/08/16 10:52:52;;;;;;;;;;;;;;;40.90;18.28;99942.00;4425057;32;19971;-68
2022/08/16 10:55:17;;;;;;;;;;;;;;;40.57;18.64;99948.63;4421495;32;19998;-67
2022/08/16 10:57:44;;;;;;;;;;;;;;;40.27;18.91;99946.53;4413220;32;20008;-69
2022/08/16 11:00:13;;;;;;;;;;;;;;;40.79;18.71;99949.66;4424389;32;20042;-70
2022/08/16 11:02:39;;;;;;;;;;;;;;;40.17;19.28;99952.69;4424406;32;19985;-67
2022/08/16 11:05:10;;;;;;;;;;;;;;;40.31;19.22;99941.56;4423130;32;19996;-68
2022/08/16 11:07:35;;;;;;;;;;;;;;;40.25;19.27;99953.09;4422820;32;19984;-67
2022/08/16 11:10:02;;;;;;;;;;;;;;;39.60;19.95;99939.63;4420620;32;20386;-68
2022/08/16 11:12:27;;;;;;;;;;;;;;;40.07;19.49;99942.59;4425419;32;20039;-67
2022/08/16 11:14:53;;;;;;;;;;;;;;;40.15;19.39;99949.63;4423382;32;20004;-67
2022/08/16 11:17:19;;;;;;;;;;;;;;;40.13;19.33;99948.78;4424048;32;19989;-67
2022/08/16 11:19:44;;;;;;;;;;;;;;;40.06;19.22;99952.88;4421683;32;19968;-66
2022/08/16 11:22:09;;;;;;;;;;;;;;;40.44;18.81;99960.56;4425705;32;20035;-66
2022/08/16 11:24:39;;;;;;;;;;;;;;;40.51;18.63;99948.37;4424265;32;20008;-66
2022/08/16 11:27:07;;;;;;;;;;;;;;;40.82;18.24;99954.19;4423731;32;20072;-67
2022/08/16 11:29:34;;;;;;;;;;;;;;;40.34;18.73;99963.06;4421453;32;19964;-67
2022/08/16 11:32:00;;;;;;;;;;;;;;;40.80;18.22;99965.16;4426408;32;20357;-66
2022/08/16 11:34:26;;;;;;;;;;;;;;;40.77;18.32;99969.47;4421910;32;20040;-67
2022/08/16 11:36:52;;;;;;;;;;;;;;;40.70;17.94;99965.47;4426071;32;20013;-67
2022/08/16 11:39:17;;;;;;;;;;;;;;;41.07;17.84;99959.75;4423061;32;20015;-66
2022/08/16 11:41:43;;;;;;;;;;;;;;;41.26;17.80;99964.97;4425003;32;19993;-65
2022/08/16 11:44:10;;;;;;;;;;;;;;;40.78;18.32;99956.22;4423246;32;19949;-66
2022/08/16 11:46:36;;;;;;;;;;;;;;;41.74;17.63;99957.34;4424588;32;19984;-66
2022/08/16 11:49:02;;;;;;;;;;;;;;;41.47;17.76;99956.97;4422347;32;19981;-66
2022/08/16 11:51:27;;;;;;;;;;;;;;;41.90;17.47;99960.97;4422476;32;20093;-69
2022/08/16 11:53:53;;;;;;;;;;;;;;;42.35;16.98;99957.53;4422474;32;20328;-66
2022/08/16 11:56:20;;;;;;;;;;;;;;;43.17;16.03;99960.56;4421015;32;19995;-65
2022/08/16 11:58:45;;;;;;;;;;;;;;;43.50;15.91;99956.50;4423541;32;20002;-68
2022/08/16 12:01:13;;;;;;;;;;;;;;;45.05;14.74;99962.66;4422124;32;20017;-66
2022/08/16 12:03:38;;;;;;;;;;;;;;;44.94;14.69;99957.91;4423948;32;20271;-67
2022/08/16 12:06:08;;;;;;;;;;;;;;;45.46;14.10;99965.22;4421435;32;20117;-70
2022/08/16 12:08:34;;;;;;;;;;;;;;;45.85;13.92;99969.87;4424189;32;20627;-68
2022/08/16 12:11:00;;;;;;;;;;;;;;;46.30;13.41;99964.22;4422329;32;19997;-69
2022/08/16 12:13:26;;;;;;;;;;;;;;;46.31;13.36;99971.69;4425259;32;19978;-68
2022/08/16 12:15:52;;;;;;;;;;;;;;;45.84;13.92;99975.06;4424006;32;20047;-66
2022/08/16 12:18:18;;;;;;;;;;;;;;;46.14;13.66;99975.78;4423974;32;19973;-68
2022/08/16 12:20:44;;;;;;;;;;;;;;;45.57;14.18;99975.88;4419409;32;20354;-67
2022/08/16 12:23:10;;;;;;;;;;;;;;;45.76;14.08;99977.13;4424182;32;19954;-66
2022/08/16 12:25:36;;;;;;;;;;;;;;;45.33;14.59;99978.22;4425455;32;19971;-66
2022/08/16 12:28:03;;;;;;;;;;;;;;;45.33;14.65;99983.44;4426521;32;20502;-65
2022/08/16 12:30:31;;;;;;;;;;;;;;;44.53;15.32;99982.72;4427320;32;20346;-66
2022/08/16 12:32:58;;;;;;;;;;;;;;;45.26;14.81;99972.84;4427537;32;19960;-66
2022/08/16 12:35:25;;;;;;;;;;;;;;;45.89;14.22;99997.47;4424560;32;19992;-66
2022/08/16 12:37:52;;;;;;;;;;;;;;;45.15;14.71;99986.66;4423803;32;20043;-67
2022/08/16 12:40:20;;;;;;;;;;;;;;;46.12;13.99;99986.88;4425472;32;20338;-68
2022/08/16 12:42:48;;;;;;;;;;;;;;;45.86;14.03;99986.25;4425576;32;20064;-69
2022/08/16 12:45:14;;;;;;;;;;;;;;;46.16;13.65;99990.69;4424831;32;20489;-69